createdAt,value
2023-03-30T00:00:56.710Z,74.20
2023-03-30T00:03:23.709Z,74.20
2023-03-30T00:05:56.623Z,74.10
2023-03-30T00:08:30.287Z,74.10
2023-03-30T00:11:08.454Z,74.00
2023-03-30T00:13:39.140Z,73.90
2023-03-30T00:16:07.797Z,73.80
2023-03-30T00:18:36.852Z,73.80
2023-03-30T00:21:04.559Z,73.70
2023-03-30T00:23:35.295Z,73.70
2023-03-30T00:26:02.109Z,73.60
2023-03-30T00:28:31.040Z,73.60
2023-03-30T00:31:00.666Z,73.70
2023-03-30T00:33:41.499Z,73.60
2023-03-30T00:36:12.626Z,73.50
2023-03-30T00:38:40.322Z,73.40
2023-03-30T00:41:07.395Z,73.40
2023-03-30T00:43:35.480Z,73.30
2023-03-30T00:46:02.459Z,73.10
2023-03-30T00:48:34.590Z,73.10
2023-03-30T00:51:07.515Z,72.90
2023-03-30T00:53:47.211Z,72.90
2023-03-30T00:56:16.641Z,72.70
2023-03-30T00:58:45.284Z,72.60
2023-03-30T01:01:15.114Z,72.40
2023-03-30T01:03:45.999Z,72.30
2023-03-30T01:06:14.395Z,72.20
2023-03-30T01:08:42.526Z,72.10
2023-03-30T01:11:09.834Z,72.00
2023-03-30T01:13:48.557Z,71.90
2023-03-30T01:16:31.230Z,71.90
2023-03-30T01:19:16.138Z,71.80
2023-03-30T01:22:07.927Z,71.80
2023-03-30T01:25:08.382Z,71.80
2023-03-30T01:28:09.793Z,71.70
2023-03-30T01:30:46.194Z,71.70
2023-03-30T01:33:50.850Z,71.60
2023-03-30T01:36:31.678Z,71.50
2023-03-30T01:39:29.339Z,71.50
2023-03-30T01:42:02.692Z,71.60
2023-03-30T01:44:48.641Z,71.90
2023-03-30T01:47:29.964Z,71.40
2023-03-30T01:50:11.784Z,71.40
2023-03-30T01:52:42.548Z,71.40
2023-03-30T01:55:33.416Z,71.40
2023-03-30T01:58:08.288Z,71.30
2023-03-30T02:00:38.332Z,71.30
2023-03-30T02:03:19.164Z,71.10
2023-03-30T02:05:49.236Z,71.20
2023-03-30T02:08:20.060Z,71.10
2023-03-30T02:10:49.106Z,71.10
2023-03-30T02:13:26.699Z,71.10
2023-03-30T02:16:07.201Z,71.00
2023-03-30T02:18:34.119Z,71.10
2023-03-30T02:21:02.197Z,71.20
2023-03-30T02:23:35.646Z,71.20
2023-03-30T02:26:02.657Z,71.30
2023-03-30T02:28:29.388Z,72.00
2023-03-30T02:30:56.811Z,71.20
2023-03-30T02:33:33.720Z,71.20
2023-03-30T02:36:16.054Z,71.10
2023-03-30T02:39:05.177Z,71.20
2023-03-30T02:41:31.941Z,71.20
2023-03-30T02:44:01.683Z,71.20
2023-03-30T02:46:43.416Z,71.20
2023-03-30T02:49:29.116Z,71.30
2023-03-30T02:52:10.094Z,71.40
2023-03-30T02:54:55.115Z,71.50
2023-03-30T02:57:45.818Z,71.40
2023-03-30T03:00:18.715Z,71.60
2023-03-30T03:02:52.753Z,71.70
2023-03-30T03:05:20.746Z,71.70
2023-03-30T03:07:48.258Z,72.60
2023-03-30T03:10:15.050Z,71.90
2023-03-30T03:12:44.545Z,72.00
2023-03-30T03:15:12.555Z,72.10
2023-03-30T03:17:39.334Z,72.20
2023-03-30T03:20:10.392Z,72.60
2023-03-30T03:22:37.221Z,72.80
2023-03-30T03:25:05.107Z,73.00
2023-03-30T03:27:31.975Z,73.20
2023-03-30T03:29:58.909Z,73.50
2023-03-30T03:32:25.688Z,73.70
2023-03-30T03:34:52.432Z,73.90
2023-03-30T03:37:19.391Z,74.10
2023-03-30T03:39:46.666Z,74.30
2023-03-30T03:42:13.562Z,74.40
2023-03-30T03:44:40.640Z,74.40
2023-03-30T03:47:07.564Z,74.50
2023-03-30T03:49:34.276Z,74.60
2023-03-30T03:52:00.989Z,74.60
2023-03-30T03:54:27.709Z,74.70
2023-03-30T03:56:54.478Z,74.60
2023-03-30T03:59:21.248Z,74.70
2023-03-30T04:01:48.140Z,74.70
2023-03-30T04:04:14.918Z,74.60
2023-03-30T04:06:41.666Z,74.60
2023-03-30T04:09:08.378Z,74.60
2023-03-30T04:11:35.169Z,74.50
2023-03-30T04:14:01.901Z,75.20
2023-03-30T04:16:29.001Z,74.30
2023-03-30T04:18:57.611Z,74.20
2023-03-30T04:21:27.898Z,74.10
2023-03-30T04:23:54.631Z,73.90
2023-03-30T04:26:21.420Z,74.00
2023-03-30T04:28:48.134Z,73.90
2023-03-30T04:31:14.943Z,73.90
2023-03-30T04:33:55.019Z,73.90
2023-03-30T04:36:22.094Z,74.10
2023-03-30T04:39:11.948Z,74.30
2023-03-30T04:41:41.806Z,74.40
2023-03-30T04:44:10.406Z,74.60
2023-03-30T04:46:37.544Z,74.90
2023-03-30T04:49:07.228Z,75.10
2023-03-30T04:51:33.980Z,75.20
2023-03-30T04:54:02.302Z,75.30
2023-03-30T04:56:31.880Z,75.40
2023-03-30T04:58:58.603Z,75.70
2023-03-30T05:01:25.448Z,75.80
2023-03-30T05:03:55.247Z,76.00
2023-03-30T05:06:22.055Z,76.10
2023-03-30T05:08:48.956Z,76.50
2023-03-30T05:11:18.546Z,76.40
2023-03-30T05:13:45.537Z,76.60
2023-03-30T05:16:12.544Z,76.70
2023-03-30T05:18:39.332Z,77.10
2023-03-30T05:21:06.744Z,77.00
2023-03-30T05:23:33.563Z,77.10
2023-03-30T05:26:00.444Z,77.20
2023-03-30T05:28:27.222Z,77.30
2023-03-30T05:30:57.001Z,77.50
2023-03-30T05:33:24.475Z,77.80
2023-03-30T05:35:51.976Z,77.60
2023-03-30T05:38:31.474Z,77.60
2023-03-30T05:40:58.291Z,77.80
2023-03-30T05:43:24.998Z,77.80
2023-03-30T05:45:51.851Z,78.00
2023-03-30T05:48:18.854Z,78.00
2023-03-30T05:50:48.268Z,78.20
2023-03-30T05:53:15.708Z,78.20
2023-03-30T05:55:49.599Z,78.20
2023-03-30T05:58:16.961Z,78.30
2023-03-30T06:00:44.804Z,78.30
2023-03-30T06:03:12.676Z,78.30
2023-03-30T06:05:41.830Z,78.30
2023-03-30T06:08:09.954Z,78.30
2023-03-30T06:10:37.484Z,78.40
2023-03-30T06:13:04.884Z,78.30
2023-03-30T06:15:31.693Z,78.50
2023-03-30T06:17:59.352Z,78.40
2023-03-30T06:20:26.208Z,78.50
2023-03-30T06:22:53.040Z,78.60
2023-03-30T06:25:24.634Z,78.60
2023-03-30T06:27:52.135Z,78.70
2023-03-30T06:30:21.135Z,78.60
2023-03-30T06:32:47.918Z,78.70
2023-03-30T06:35:15.740Z,78.80
2023-03-30T06:37:42.760Z,78.80
2023-03-30T06:40:13.507Z,78.90
2023-03-30T06:42:41.589Z,78.90
2023-03-30T06:45:09.219Z,78.80
2023-03-30T06:47:37.162Z,78.70
2023-03-30T06:50:05.015Z,78.90
2023-03-30T06:52:35.522Z,78.80
2023-03-30T06:55:03.308Z,78.70
2023-03-30T06:57:30.700Z,78.50
2023-03-30T06:59:57.736Z,78.50
2023-03-30T07:02:25.729Z,78.40
2023-03-30T07:04:52.640Z,78.20
2023-03-30T07:07:19.853Z,78.20
2023-03-30T07:09:49.466Z,78.30
2023-03-30T07:12:16.477Z,78.10
2023-03-30T07:14:43.166Z,78.00
2023-03-30T07:17:10.349Z,77.80
2023-03-30T07:19:37.266Z,77.60
2023-03-30T07:22:04.167Z,77.50
2023-03-30T07:24:31.544Z,77.40
2023-03-30T07:26:58.417Z,77.10
2023-03-30T07:29:27.073Z,77.10
2023-03-30T07:31:59.001Z,77.00
2023-03-30T07:34:25.847Z,76.60
2023-03-30T07:36:54.459Z,76.20
2023-03-30T07:39:21.770Z,75.90
2023-03-30T07:41:48.491Z,75.70
2023-03-30T07:44:15.517Z,75.70
2023-03-30T07:46:42.383Z,75.60
2023-03-30T07:49:09.229Z,75.50
2023-03-30T07:51:36.122Z,75.60
2023-03-30T07:54:03.914Z,75.50
2023-03-30T07:56:34.968Z,75.50
2023-03-30T07:59:04.615Z,75.50
2023-03-30T08:01:35.272Z,75.50
2023-03-30T08:04:02.955Z,75.50
2023-03-30T08:06:30.370Z,75.50
2023-03-30T08:08:57.224Z,75.40
2023-03-30T08:11:24.020Z,75.20
2023-03-30T08:13:50.809Z,75.10
2023-03-30T08:16:17.587Z,75.00
2023-03-30T08:18:44.361Z,75.00
2023-03-30T08:21:11.523Z,75.00
2023-03-30T08:23:38.360Z,74.90
2023-03-30T08:26:05.305Z,74.70
2023-03-30T08:28:32.210Z,74.60
2023-03-30T08:31:07.135Z,74.60
2023-03-30T08:33:35.077Z,74.50
2023-03-30T08:36:02.051Z,74.30
2023-03-30T08:38:29.352Z,74.00
2023-03-30T08:40:56.360Z,75.00
2023-03-30T08:43:52.850Z,74.10
2023-03-30T08:46:24.779Z,74.30
2023-03-30T08:48:53.671Z,73.80
2023-03-30T08:51:23.522Z,74.60
2023-03-30T08:54:01.465Z,73.60
2023-03-30T08:56:33.220Z,73.10
2023-03-30T08:59:27.137Z,72.80
2023-03-30T09:02:03.258Z,72.60
2023-03-30T09:04:48.984Z,72.50
2023-03-30T09:07:21.896Z,72.60
2023-03-30T09:09:51.826Z,72.50
2023-03-30T09:12:44.485Z,72.40
2023-03-30T09:15:25.639Z,71.90
2023-03-30T09:17:56.134Z,71.90
2023-03-30T09:20:27.044Z,71.90
2023-03-30T09:22:55.853Z,72.10
2023-03-30T09:25:47.566Z,72.10
2023-03-30T09:28:41.399Z,72.10
2023-03-30T09:31:22.380Z,71.50
2023-03-30T09:34:08.472Z,71.50
2023-03-30T09:37:00.192Z,71.60
2023-03-30T09:39:30.445Z,71.80
2023-03-30T09:42:34.238Z,71.40
2023-03-30T09:45:27.506Z,70.70
2023-03-30T09:47:54.670Z,70.20
2023-03-30T09:50:28.527Z,70.00
2023-03-30T09:53:04.977Z,70.00
2023-03-30T09:55:34.875Z,69.60
2023-03-30T09:58:26.323Z,69.00
2023-03-30T10:01:13.993Z,69.10
2023-03-30T10:03:42.641Z,69.00
2023-03-30T10:06:13.278Z,68.70
2023-03-30T10:08:50.659Z,68.50
2023-03-30T10:11:30.448Z,67.90
2023-03-30T10:13:58.734Z,67.80
2023-03-30T10:16:28.723Z,67.50
2023-03-30T10:19:04.041Z,67.50
2023-03-30T10:21:36.634Z,67.40
2023-03-30T10:24:14.625Z,67.40
2023-03-30T10:26:46.494Z,67.30
2023-03-30T10:29:16.671Z,67.30
2023-03-30T10:31:46.269Z,67.20
2023-03-30T10:34:20.843Z,67.40
2023-03-30T10:36:53.256Z,68.00
2023-03-30T10:39:30.255Z,68.20
2023-03-30T10:42:00.172Z,68.00
2023-03-30T10:44:44.981Z,67.10
2023-03-30T10:47:14.587Z,67.10
2023-03-30T10:49:44.186Z,66.60
2023-03-30T10:52:52.287Z,66.20
2023-03-30T10:55:48.397Z,66.30
2023-03-30T10:58:52.930Z,66.50
2023-03-30T11:01:39.526Z,66.40
2023-03-30T11:04:23.326Z,65.60
2023-03-30T11:06:54.533Z,65.70
2023-03-30T11:09:29.467Z,65.90
2023-03-30T11:12:11.091Z,65.70
2023-03-30T11:14:40.580Z,65.70
2023-03-30T11:17:19.741Z,65.50
2023-03-30T11:19:51.977Z,65.40
2023-03-30T11:22:31.367Z,65.30
2023-03-30T11:25:00.166Z,65.30
2023-03-30T11:27:43.435Z,65.40
2023-03-30T11:30:17.173Z,65.80
2023-03-30T11:32:56.499Z,66.00
2023-03-30T11:35:41.329Z,65.90
2023-03-30T11:38:35.388Z,64.80
2023-03-30T11:41:11.994Z,64.50
2023-03-30T11:43:38.948Z,64.50
2023-03-30T11:46:20.477Z,64.60
2023-03-30T11:49:03.860Z,64.00
2023-03-30T11:51:52.984Z,63.20
2023-03-30T11:54:59.784Z,62.80
2023-03-30T11:57:41.126Z,62.40
2023-03-30T12:00:23.377Z,62.80
2023-03-30T12:03:22.649Z,63.20
2023-03-30T12:06:27.056Z,62.70
2023-03-30T12:09:12.698Z,63.60
2023-03-30T12:12:03.763Z,62.60
2023-03-30T12:14:47.260Z,63.80
2023-03-30T12:17:37.556Z,64.00
2023-03-30T12:20:07.832Z,63.90
2023-03-30T12:22:52.566Z,63.80
2023-03-30T12:25:39.162Z,62.60
2023-03-30T12:28:15.026Z,63.30
2023-03-30T12:30:57.456Z,63.50
2023-03-30T12:33:46.223Z,64.00
2023-03-30T12:36:31.176Z,63.60
2023-03-30T12:41:51.232Z,64.70
2023-03-30T12:44:25.348Z,64.60
2023-03-30T12:47:27.910Z,64.40
2023-03-30T12:50:18.795Z,63.60
2023-03-30T12:52:54.646Z,62.50
2023-03-30T12:55:29.468Z,62.30
2023-03-30T12:58:17.368Z,61.90
2023-03-30T13:00:50.274Z,62.10
2023-03-30T13:03:50.012Z,62.30
2023-03-30T13:06:48.648Z,61.20
2023-03-30T13:09:15.481Z,62.30
2023-03-30T13:11:49.280Z,62.50
2023-03-30T13:14:31.204Z,62.60
2023-03-30T13:17:01.119Z,61.80
2023-03-30T13:19:42.087Z,62.50
2023-03-30T13:22:11.640Z,62.30
2023-03-30T13:25:20.669Z,62.40
2023-03-30T13:27:56.602Z,62.60
2023-03-30T13:30:29.318Z,62.40
2023-03-30T13:32:58.966Z,62.20
2023-03-30T13:35:40.999Z,62.10
2023-03-30T13:38:16.958Z,62.40
2023-03-30T13:41:04.695Z,63.00
2023-03-30T13:43:39.360Z,63.70
2023-03-30T13:46:27.410Z,64.10
2023-03-30T13:49:15.728Z,64.20
2023-03-30T13:51:43.107Z,64.30
2023-03-30T13:54:21.909Z,64.40
2023-03-30T13:57:11.155Z,65.00
2023-03-30T13:59:47.077Z,65.80
2023-03-30T14:02:19.114Z,66.00
2023-03-30T14:04:45.961Z,66.50
2023-03-30T14:07:19.140Z,66.70
2023-03-30T14:10:06.500Z,66.80
2023-03-30T14:12:35.598Z,65.60
2023-03-30T14:15:26.025Z,65.80
2023-03-30T14:17:56.936Z,65.00
2023-03-30T14:20:29.571Z,64.50
2023-03-30T14:22:58.581Z,64.20
2023-03-30T14:25:31.757Z,63.20
2023-03-30T14:28:07.639Z,63.00
2023-03-30T14:30:37.207Z,63.30
2023-03-30T14:33:13.331Z,63.20
2023-03-30T14:35:59.320Z,62.30
2023-03-30T14:38:30.278Z,62.30
2023-03-30T14:41:00.434Z,62.40
2023-03-30T14:43:31.155Z,63.20
2023-03-30T14:46:02.857Z,62.70
2023-03-30T14:48:35.353Z,62.80
2023-03-30T14:51:02.982Z,62.90
2023-03-30T14:53:31.155Z,63.20
2023-03-30T14:56:00.696Z,63.10
2023-03-30T14:58:31.200Z,63.30
2023-03-30T15:01:00.327Z,63.20
2023-03-30T15:03:34.333Z,62.70
2023-03-30T15:06:02.747Z,62.80
2023-03-30T15:08:36.594Z,62.50
2023-03-30T15:11:08.614Z,62.80
2023-03-30T15:13:54.792Z,62.90
2023-03-30T15:16:28.985Z,62.70
2023-03-30T15:19:28.088Z,62.30
2023-03-30T15:21:58.632Z,62.10
2023-03-30T15:24:29.410Z,61.90
2023-03-30T15:27:01.063Z,61.60
2023-03-30T15:29:30.392Z,61.00
2023-03-30T15:32:21.697Z,61.10
2023-03-30T15:35:16.551Z,60.70
2023-03-30T15:37:54.986Z,61.00
2023-03-30T15:40:36.093Z,61.30
2023-03-30T15:43:18.209Z,61.90
2023-03-30T15:45:48.947Z,62.10
2023-03-30T15:48:21.965Z,62.10
2023-03-30T15:50:58.022Z,62.10
2023-03-30T15:53:48.506Z,61.90
2023-03-30T15:56:34.864Z,61.90
2023-03-30T15:59:01.891Z,61.60
2023-03-30T16:02:02.923Z,61.60
2023-03-30T16:04:32.101Z,62.10
2023-03-30T16:06:58.848Z,62.30
2023-03-30T16:09:25.697Z,62.30
2023-03-30T16:11:52.654Z,62.20
2023-03-30T16:14:20.668Z,62.30
2023-03-30T16:16:48.216Z,62.20
2023-03-30T16:19:18.188Z,62.40
2023-03-30T16:21:45.651Z,62.60
2023-03-30T16:24:12.836Z,62.90
2023-03-30T16:26:42.710Z,62.90
2023-03-30T16:29:21.559Z,62.70
2023-03-30T16:31:49.588Z,62.70
2023-03-30T16:34:16.751Z,63.00
2023-03-30T16:36:44.103Z,63.00
2023-03-30T16:39:27.340Z,63.00
2023-03-30T16:41:55.023Z,63.10
2023-03-30T16:44:23.871Z,63.00
2023-03-30T16:46:51.616Z,63.20
2023-03-30T16:49:24.212Z,63.30
2023-03-30T16:51:53.778Z,63.20
2023-03-30T16:54:31.161Z,63.20
2023-03-30T16:56:59.002Z,63.30
2023-03-30T16:59:29.038Z,63.60
2023-03-30T17:01:56.270Z,63.60
2023-03-30T17:04:23.304Z,63.70
2023-03-30T17:06:50.238Z,63.50
2023-03-30T17:09:19.527Z,63.60
2023-03-30T17:11:47.601Z,63.70
2023-03-30T17:14:14.874Z,63.80
2023-03-30T17:16:42.321Z,63.80
2023-03-30T17:19:13.857Z,63.90
2023-03-30T17:21:42.956Z,64.00
2023-03-30T17:24:11.312Z,64.20
2023-03-30T17:26:41.649Z,64.30
2023-03-30T17:29:09.785Z,64.40
2023-03-30T17:31:45.856Z,64.50
2023-03-30T17:34:13.297Z,64.70
2023-03-30T17:36:40.111Z,64.90
2023-03-30T17:39:07.283Z,64.90
2023-03-30T17:41:34.288Z,64.90
2023-03-30T17:44:01.155Z,64.60
2023-03-30T17:46:28.274Z,64.80
2023-03-30T17:48:55.269Z,64.70
2023-03-30T17:51:22.133Z,64.70
2023-03-30T17:53:48.959Z,64.90
2023-03-30T17:56:15.849Z,65.00
2023-03-30T17:58:42.823Z,65.10
2023-03-30T18:01:09.971Z,65.80
2023-03-30T18:03:39.145Z,65.10
2023-03-30T18:06:06.771Z,65.20
2023-03-30T18:08:33.696Z,65.20
2023-03-30T18:11:01.675Z,65.10
2023-03-30T18:13:29.498Z,65.20
2023-03-30T18:15:58.746Z,65.20
2023-03-30T18:18:29.321Z,65.30
2023-03-30T18:21:04.591Z,65.20
2023-03-30T18:23:34.741Z,65.40
2023-03-30T18:26:03.809Z,65.80
2023-03-30T18:28:31.538Z,65.40
2023-03-30T18:31:02.077Z,65.50
2023-03-30T18:33:28.892Z,65.70
2023-03-30T18:36:08.058Z,65.70
2023-03-30T18:38:35.267Z,65.80
2023-03-30T18:41:04.821Z,65.80
2023-03-30T18:43:32.048Z,66.10
2023-03-30T18:46:01.980Z,66.00
2023-03-30T18:48:29.587Z,66.00
2023-03-30T18:50:56.807Z,66.00
2023-03-30T18:53:26.115Z,66.10
2023-03-30T18:56:01.694Z,66.90
2023-03-30T18:58:33.430Z,66.10
2023-03-30T19:01:01.455Z,66.20
2023-03-30T19:03:30.001Z,66.20
2023-03-30T19:05:56.972Z,66.30
2023-03-30T19:08:26.106Z,66.40
2023-03-30T19:10:55.247Z,66.40
2023-03-30T19:13:23.377Z,66.50
2023-03-30T19:15:51.230Z,66.60
2023-03-30T19:18:18.708Z,66.60
2023-03-30T19:20:45.968Z,66.80
2023-03-30T19:23:15.618Z,66.70
2023-03-30T19:25:44.118Z,66.80
2023-03-30T19:28:12.504Z,66.70
2023-03-30T19:30:40.185Z,66.80
2023-03-30T19:33:12.804Z,66.80
2023-03-30T19:35:41.401Z,67.00
2023-03-30T19:38:08.598Z,66.90
2023-03-30T19:40:37.876Z,67.00
2023-03-30T19:43:04.761Z,67.00
2023-03-30T19:45:34.605Z,67.00
2023-03-30T19:48:01.396Z,67.10
2023-03-30T19:50:30.133Z,67.20
2023-03-30T19:52:57.771Z,67.20
2023-03-30T19:55:26.263Z,67.20
2023-03-30T19:57:53.181Z,67.30
2023-03-30T20:00:20.761Z,67.40
2023-03-30T20:02:53.040Z,67.40
2023-03-30T20:05:21.484Z,67.50
2023-03-30T20:07:48.776Z,67.60
2023-03-30T20:10:19.256Z,67.50
2023-03-30T20:12:47.019Z,67.70
2023-03-30T20:15:14.515Z,67.80
2023-03-30T20:17:42.129Z,67.80
2023-03-30T20:20:12.655Z,68.00
2023-03-30T20:22:42.414Z,68.00
2023-03-30T20:25:11.885Z,68.10
2023-03-30T20:27:38.694Z,68.10
2023-03-30T20:30:07.525Z,68.20
2023-03-30T20:32:35.501Z,68.30
2023-03-30T20:35:02.723Z,68.20
2023-03-30T20:37:29.685Z,68.50
2023-03-30T20:40:06.498Z,68.50
2023-03-30T20:42:33.612Z,68.60
2023-03-30T20:45:01.318Z,68.50
2023-03-30T20:47:30.455Z,68.60
2023-03-30T20:49:58.434Z,68.70
2023-03-30T20:52:25.882Z,68.70
2023-03-30T20:54:52.990Z,68.70
2023-03-30T20:57:21.170Z,68.90
2023-03-30T20:59:48.759Z,69.00
2023-03-30T21:02:16.589Z,69.20
2023-03-30T21:04:44.594Z,69.40
2023-03-30T21:07:12.371Z,69.50
2023-03-30T21:09:42.681Z,69.70
2023-03-30T21:12:12.018Z,70.00
2023-03-30T21:14:38.880Z,70.20
2023-03-30T21:17:05.799Z,70.50
2023-03-30T21:19:33.133Z,70.70
2023-03-30T21:22:01.162Z,71.00
2023-03-30T21:24:28.389Z,71.30
2023-03-30T21:26:55.166Z,71.40
2023-03-30T21:29:22.678Z,71.70
2023-03-30T21:31:49.960Z,72.00
2023-03-30T21:34:19.824Z,72.10
2023-03-30T21:36:46.862Z,72.40
2023-03-30T21:39:13.972Z,72.50
2023-03-30T21:41:40.804Z,72.80
2023-03-30T21:44:13.361Z,72.90
2023-03-30T21:46:40.422Z,72.90
2023-03-30T21:49:07.271Z,73.10
2023-03-30T21:51:33.988Z,73.20
2023-03-30T21:54:00.799Z,73.60
2023-03-30T21:56:29.977Z,73.50
2023-03-30T21:58:57.525Z,73.70
2023-03-30T22:01:25.161Z,73.60
2023-03-30T22:03:53.450Z,73.80
2023-03-30T22:06:23.329Z,74.00
2023-03-30T22:08:50.655Z,74.00
2023-03-30T22:11:22.758Z,74.10
2023-03-30T22:13:50.638Z,74.20
2023-03-30T22:16:25.914Z,74.20
2023-03-30T22:18:52.738Z,74.50
2023-03-30T22:21:23.725Z,74.40
2023-03-30T22:23:51.290Z,74.60
2023-03-30T22:26:18.034Z,74.60
2023-03-30T22:28:44.992Z,74.60
2023-03-30T22:31:14.025Z,74.80
2023-03-30T22:33:42.169Z,74.90
2023-03-30T22:36:21.042Z,74.90
2023-03-30T22:38:49.544Z,75.00
2023-03-30T22:41:18.675Z,75.30
2023-03-30T22:43:45.540Z,75.20
2023-03-30T22:46:12.649Z,75.30
2023-03-30T22:48:41.705Z,75.30
2023-03-30T22:51:08.764Z,75.40
2023-03-30T22:53:35.833Z,75.30
2023-03-30T22:56:02.798Z,75.50
2023-03-30T22:58:30.112Z,75.40
2023-03-30T23:01:10.648Z,75.30
2023-03-30T23:03:40.807Z,75.30
2023-03-30T23:06:09.217Z,75.40
2023-03-30T23:08:36.511Z,75.40
2023-03-30T23:11:06.419Z,75.60
2023-03-30T23:13:37.844Z,75.40
2023-03-30T23:16:08.925Z,75.50
2023-03-30T23:18:36.273Z,75.60
2023-03-30T23:21:06.798Z,75.60
2023-03-30T23:23:37.824Z,75.70
2023-03-30T23:26:09.182Z,75.80
2023-03-30T23:28:42.152Z,75.80
2023-03-30T23:31:17.772Z,76.00
2023-03-30T23:33:45.425Z,76.00
2023-03-30T23:36:19.292Z,76.00
2023-03-30T23:38:50.018Z,76.10
2023-03-30T23:41:19.181Z,76.10
2023-03-30T23:43:46.627Z,76.20
2023-03-30T23:46:14.386Z,76.10
2023-03-30T23:48:42.074Z,76.30
2023-03-30T23:51:09.273Z,76.40
2023-03-30T23:53:40.157Z,76.40
2023-03-30T23:56:12.881Z,76.60
2023-03-30T23:58:40.944Z,76.60
